Middlebourne, West Virginia
Current Conditions -  °F | °C
As of 2:53 PM on Sunday 28 Dec 2014 (Local Time) from KPKB Reporting Station
Haze Haze  
Wind Chill: 34°   Ceiling: 600
Heat Index: 38°   Visibility: 1.5mi
Dew Point: 36°   Wind: 5mph
Humidity: 93%   Direction: 310°NW
Pressure: 30.11"   Gusts: NA
Location:  39.49°N, 80.9°W
Report Text: KPKB 281953Z 31004KT 1 1/2SM BR OVC006 03/02 A3011 RMK AO2 CIG 003V010 SLP198 T00330022
Loading
Personal Weather Stations






























Interactive Weather Map New forecast layout! Learn more

10-Day Weather Forecast

Advertisements
Track Severe Weather on mobile